createdAt,value
2022-11-30T00:01:11.779Z,82.60
2022-11-30T00:03:40.324Z,82.00
2022-11-30T00:06:10.481Z,83.10
2022-11-30T00:08:38.904Z,84.80
2022-11-30T00:11:12.893Z,82.20
2022-11-30T00:13:41.908Z,82.93
2022-11-30T00:16:10.585Z,81.53
2022-11-30T00:18:39.035Z,84.03
2022-11-30T00:21:09.668Z,84.43
2022-11-30T00:23:39.992Z,83.03
2022-11-30T00:26:11.889Z,86.20
2022-11-30T00:28:40.751Z,83.60
2022-11-30T00:31:12.871Z,81.03
2022-11-30T00:33:41.676Z,82.53
2022-11-30T00:36:13.480Z,84.20
2022-11-30T00:38:41.744Z,79.70
2022-11-30T00:41:11.361Z,84.43
2022-11-30T00:43:39.615Z,86.23
2022-11-30T00:46:09.249Z,84.90
2022-11-30T00:48:37.594Z,85.27
2022-11-30T00:51:06.164Z,83.83
2022-11-30T00:53:34.373Z,87.57
2022-11-30T00:56:02.530Z,85.70
2022-11-30T00:58:31.972Z,85.37
2022-11-30T01:01:00.377Z,86.97
2022-11-30T01:03:28.603Z,82.93
2022-11-30T01:05:56.626Z,85.73
2022-11-30T01:08:25.668Z,84.20
2022-11-30T01:10:57.822Z,86.53
2022-11-30T01:13:25.917Z,88.53
2022-11-30T01:15:55.412Z,86.77
2022-11-30T01:18:23.435Z,87.17
2022-11-30T01:20:51.553Z,87.30
2022-11-30T01:23:19.908Z,86.13
2022-11-30T01:25:55.818Z,87.80
2022-11-30T01:28:23.961Z,86.97
2022-11-30T01:30:59.691Z,87.30
2022-11-30T01:33:27.901Z,86.63
2022-11-30T01:36:04.683Z,87.30
2022-11-30T01:38:34.644Z,87.13
2022-11-30T01:41:03.171Z,83.97
2022-11-30T01:43:43.210Z,85.47
2022-11-30T01:46:37.055Z,83.87
2022-11-30T01:49:14.604Z,88.20
2022-11-30T01:51:47.072Z,85.60
2022-11-30T01:54:17.978Z,84.07
2022-11-30T01:56:49.619Z,84.67
2022-11-30T01:59:20.713Z,87.67
2022-11-30T02:01:50.330Z,86.60
2022-11-30T02:04:22.865Z,86.57
2022-11-30T02:06:51.138Z,83.53
2022-11-30T02:09:21.179Z,85.83
2022-11-30T02:11:49.824Z,87.53
2022-11-30T02:14:29.962Z,87.27
2022-11-30T02:17:10.555Z,88.00
2022-11-30T02:20:05.458Z,88.93
2022-11-30T02:22:48.373Z,92.67
2022-11-30T02:25:22.910Z,91.00
2022-11-30T02:28:14.153Z,89.70
2022-11-30T02:30:48.003Z,91.40
2022-11-30T02:33:20.345Z,87.67
2022-11-30T02:35:55.176Z,86.63
2022-11-30T02:38:26.410Z,85.17
2022-11-30T02:40:54.508Z,86.83
2022-11-30T02:43:25.299Z,86.10
2022-11-30T02:46:02.972Z,87.73
2022-11-30T02:48:38.759Z,90.70
2022-11-30T02:51:09.232Z,86.53
2022-11-30T02:53:37.730Z,88.33
2022-11-30T02:56:06.324Z,87.70
2022-11-30T02:58:34.514Z,87.00
2022-11-30T03:01:04.021Z,86.57
2022-11-30T03:03:32.157Z,86.73
2022-11-30T03:06:00.247Z,88.93
2022-11-30T03:08:28.418Z,90.40
2022-11-30T03:10:56.495Z,89.07
2022-11-30T03:13:24.602Z,87.83
2022-11-30T03:15:52.696Z,88.60
2022-11-30T03:18:22.264Z,86.93
2022-11-30T03:20:50.966Z,88.30
2022-11-30T03:23:20.032Z,85.50
2022-11-30T03:25:48.168Z,87.03
2022-11-30T03:28:16.202Z,88.80
2022-11-30T03:30:50.001Z,87.77
2022-11-30T03:33:18.681Z,86.13
2022-11-30T03:35:48.603Z,84.40
2022-11-30T03:38:16.761Z,87.20
2022-11-30T03:40:44.855Z,85.93
2022-11-30T03:43:12.963Z,85.13
2022-11-30T03:45:41.071Z,87.17
2022-11-30T03:48:09.222Z,84.53
2022-11-30T03:50:37.392Z,85.13
2022-11-30T03:53:06.826Z,86.63
2022-11-30T03:55:35.563Z,86.20
2022-11-30T03:58:03.633Z,86.90
2022-11-30T04:00:31.667Z,86.50
2022-11-30T04:02:59.811Z,83.33
2022-11-30T04:05:27.918Z,86.20
2022-11-30T04:07:56.148Z,85.50
2022-11-30T04:10:25.780Z,87.40
2022-11-30T04:12:53.989Z,83.87
2022-11-30T04:15:22.126Z,84.27
2022-11-30T04:17:50.344Z,85.43
2022-11-30T04:20:18.567Z,83.53
2022-11-30T04:22:46.728Z,85.40
2022-11-30T04:25:14.801Z,83.13
2022-11-30T04:27:46.916Z,81.30
2022-11-30T04:30:15.951Z,83.67
2022-11-30T04:32:44.431Z,81.23
2022-11-30T04:35:12.694Z,82.13
2022-11-30T04:37:40.778Z,82.00
2022-11-30T04:40:09.990Z,86.90
2022-11-30T04:42:38.125Z,83.10
2022-11-30T04:45:08.832Z,84.03
2022-11-30T04:47:37.570Z,86.77
2022-11-30T04:50:07.678Z,87.43
2022-11-30T04:52:35.797Z,85.57
2022-11-30T04:55:04.791Z,82.83
2022-11-30T04:57:33.190Z,88.17
2022-11-30T05:00:01.403Z,85.97
2022-11-30T05:02:32.008Z,84.10
2022-11-30T05:05:00.106Z,80.70
2022-11-30T05:07:28.064Z,83.37
2022-11-30T05:09:56.082Z,82.60
2022-11-30T05:12:24.171Z,86.23
2022-11-30T05:14:52.302Z,85.03
2022-11-30T05:17:20.464Z,87.87
2022-11-30T05:19:49.968Z,80.97
2022-11-30T05:22:18.297Z,82.73
2022-11-30T05:24:46.683Z,84.07
2022-11-30T05:27:20.898Z,81.50
2022-11-30T05:29:50.637Z,82.83
2022-11-30T05:32:19.004Z,82.03
2022-11-30T05:34:51.089Z,86.80
2022-11-30T05:37:21.408Z,85.93
2022-11-30T05:39:49.552Z,85.00
2022-11-30T05:42:17.726Z,82.37
2022-11-30T05:44:46.254Z,80.13
2022-11-30T05:47:14.882Z,81.77
2022-11-30T05:49:43.095Z,82.67
2022-11-30T05:52:11.508Z,82.93
2022-11-30T05:54:40.959Z,81.17
2022-11-30T05:57:09.098Z,81.70
2022-11-30T05:59:37.176Z,84.20
2022-11-30T06:02:05.451Z,81.20
2022-11-30T06:04:34.614Z,81.27
2022-11-30T06:07:02.667Z,82.73
2022-11-30T06:09:30.829Z,81.57
2022-11-30T06:12:00.351Z,82.30
2022-11-30T06:14:28.427Z,75.63
2022-11-30T06:16:56.517Z,78.60
2022-11-30T06:19:25.265Z,76.00
2022-11-30T06:21:53.557Z,73.07
2022-11-30T06:24:21.627Z,77.60
2022-11-30T06:26:49.783Z,74.57
2022-11-30T06:29:19.349Z,74.23
2022-11-30T06:31:47.637Z,73.23
2022-11-30T06:34:15.761Z,72.90
2022-11-30T06:36:43.833Z,75.00
2022-11-30T06:39:13.341Z,78.10
2022-11-30T06:41:41.500Z,74.20
2022-11-30T06:44:10.396Z,75.10
2022-11-30T06:46:39.839Z,74.97
2022-11-30T06:49:08.114Z,75.37
2022-11-30T06:51:37.276Z,69.43
2022-11-30T06:54:05.777Z,70.20
2022-11-30T06:56:34.097Z,72.27
2022-11-30T06:59:02.277Z,72.80
2022-11-30T07:01:30.502Z,75.88
2022-11-30T07:04:00.079Z,71.37
2022-11-30T07:06:28.411Z,73.87
2022-11-30T07:08:56.580Z,76.40
2022-11-30T07:11:24.655Z,75.40
2022-11-30T07:13:52.880Z,85.97
2022-11-30T07:16:21.010Z,81.00
2022-11-30T07:18:49.208Z,77.53
2022-11-30T07:21:18.742Z,81.00
2022-11-30T07:24:04.396Z,84.87
2022-11-30T07:26:32.499Z,84.40
2022-11-30T07:29:00.554Z,82.47
2022-11-30T07:31:30.368Z,76.73
2022-11-30T07:34:00.191Z,77.83
2022-11-30T07:36:30.330Z,79.50
2022-11-30T07:38:58.586Z,80.83
2022-11-30T07:41:26.894Z,80.47
2022-11-30T07:43:54.994Z,79.17
2022-11-30T07:46:23.122Z,83.67
2022-11-30T07:48:51.320Z,84.00
2022-11-30T07:51:21.584Z,83.60
2022-11-30T07:53:51.495Z,82.50
2022-11-30T07:56:21.584Z,88.17
2022-11-30T07:58:50.441Z,81.23
2022-11-30T08:01:21.557Z,87.43
2022-11-30T08:03:50.235Z,83.93
2022-11-30T08:06:20.942Z,86.27
2022-11-30T08:08:51.914Z,85.60
2022-11-30T08:11:22.190Z,87.03
2022-11-30T08:13:50.616Z,81.63
2022-11-30T08:16:21.076Z,82.57
2022-11-30T08:18:49.777Z,82.87
2022-11-30T08:21:19.700Z,83.30
2022-11-30T08:23:51.179Z,87.43
2022-11-30T08:26:21.526Z,89.43
2022-11-30T08:28:51.095Z,89.00
2022-11-30T08:31:21.626Z,89.47
2022-11-30T08:33:50.955Z,83.37
2022-11-30T08:36:21.017Z,90.13
2022-11-30T08:38:50.926Z,93.40
2022-11-30T08:41:21.252Z,95.60
2022-11-30T08:43:51.515Z,92.07
2022-11-30T08:46:49.911Z,94.70
2022-11-30T08:49:21.595Z,97.83
2022-11-30T08:57:33.029Z,92.73
2022-11-30T09:00:01.219Z,93.37
2022-11-30T09:02:29.453Z,94.30
2022-11-30T09:04:57.657Z,96.93
2022-11-30T09:07:25.972Z,98.80
2022-11-30T09:09:55.786Z,100.97
2022-11-30T09:12:23.949Z,104.60
2022-11-30T09:14:57.620Z,99.50
2022-11-30T09:17:26.790Z,100.50
2022-11-30T09:19:56.064Z,100.03
2022-11-30T09:22:24.212Z,104.70
2022-11-30T09:24:52.487Z,101.23
2022-11-30T09:27:22.406Z,100.00
2022-11-30T09:29:50.571Z,100.97
2022-11-30T09:32:18.672Z,104.77
2022-11-30T09:34:47.984Z,107.50
2022-11-30T09:37:18.285Z,113.33
2022-11-30T09:39:46.380Z,113.97
2022-11-30T09:42:32.827Z,109.77
2022-11-30T09:45:04.594Z,113.10
2022-11-30T09:47:54.417Z,111.73
2022-11-30T09:50:24.879Z,115.10
2022-11-30T09:52:56.392Z,114.47
2022-11-30T09:55:28.550Z,107.70
2022-11-30T09:58:01.632Z,107.03
2022-11-30T10:00:29.972Z,109.13
2022-11-30T10:03:00.477Z,105.13
2022-11-30T10:05:39.740Z,107.90
2022-11-30T10:08:23.760Z,107.87
2022-11-30T10:11:03.765Z,105.57
2022-11-30T10:13:48.849Z,106.30
2022-11-30T10:16:25.499Z,106.23
2022-11-30T10:19:05.525Z,109.37
2022-11-30T10:21:51.318Z,105.03
2022-11-30T10:24:36.446Z,108.27
2022-11-30T10:27:13.345Z,105.97
2022-11-30T10:29:44.046Z,107.87
2022-11-30T10:32:18.198Z,107.23
2022-11-30T10:34:50.162Z,110.10
2022-11-30T10:37:20.974Z,103.20
2022-11-30T10:39:59.867Z,102.30
2022-11-30T10:42:32.436Z,100.47
2022-11-30T10:45:06.405Z,94.47
2022-11-30T10:47:37.703Z,90.97
2022-11-30T10:50:07.680Z,88.73
2022-11-30T10:52:42.755Z,92.90
2022-11-30T10:55:18.866Z,88.20
2022-11-30T10:57:49.548Z,87.13
2022-11-30T11:00:19.887Z,89.90
2022-11-30T11:02:49.483Z,85.37
2022-11-30T11:05:21.108Z,89.93
2022-11-30T11:07:59.845Z,91.07
2022-11-30T11:10:35.802Z,88.10
2022-11-30T11:13:05.108Z,84.83
2022-11-30T11:15:35.910Z,83.93
2022-11-30T11:18:26.107Z,81.27
2022-11-30T11:21:06.193Z,79.23
2022-11-30T11:23:38.011Z,73.63
2022-11-30T11:26:07.432Z,71.50
2022-11-30T11:28:39.445Z,68.97
2022-11-30T11:31:20.536Z,67.27
2022-11-30T11:33:53.815Z,69.77
2022-11-30T11:36:28.199Z,64.50
2022-11-30T11:38:56.975Z,62.97
2022-11-30T11:41:28.516Z,63.17
2022-11-30T11:44:05.782Z,63.03
2022-11-30T11:46:38.373Z,60.73
2022-11-30T11:49:09.095Z,58.70
2022-11-30T11:51:39.575Z,52.83
2022-11-30T11:54:17.664Z,49.27
2022-11-30T11:56:46.529Z,50.10
2022-11-30T11:59:18.969Z,47.00
2022-11-30T12:01:56.394Z,42.03
2022-11-30T12:04:50.720Z,38.80
2022-11-30T12:07:26.278Z,37.20
2022-11-30T12:10:50.460Z,36.53
2022-11-30T12:13:15.695Z,33.87
2022-11-30T12:15:59.462Z,51.83
2022-11-30T12:18:35.099Z,31.87
2022-11-30T12:21:13.191Z,33.33
2022-11-30T12:24:03.779Z,32.33
2022-11-30T12:26:39.261Z,32.10
2022-11-30T12:29:22.026Z,31.70
2022-11-30T12:32:03.711Z,31.20
2022-11-30T12:34:47.895Z,30.53
2022-11-30T12:37:23.455Z,29.90
2022-11-30T12:40:03.243Z,28.87
2022-11-30T12:42:39.872Z,31.10
2022-11-30T12:45:18.797Z,33.83
2022-11-30T12:47:55.437Z,33.47
2022-11-30T12:50:39.472Z,31.27
2022-11-30T12:53:18.866Z,29.27
2022-11-30T12:55:55.768Z,28.47
2022-11-30T12:58:41.577Z,27.30
2022-11-30T13:01:20.390Z,28.43
2022-11-30T13:03:56.899Z,27.77
2022-11-30T13:06:32.974Z,27.83
2022-11-30T13:09:06.680Z,26.77
2022-11-30T13:11:39.004Z,26.27
2022-11-30T13:14:14.706Z,23.93
2022-11-30T13:16:45.270Z,22.43
2022-11-30T13:19:30.442Z,21.53
2022-11-30T13:22:06.657Z,19.90
2022-11-30T13:24:38.657Z,20.17
2022-11-30T13:27:12.249Z,20.40
2022-11-30T13:29:58.477Z,21.27
2022-11-30T13:35:46.215Z,19.00
2022-11-30T13:38:36.321Z,20.27
2022-11-30T13:41:08.429Z,20.97
2022-11-30T13:43:41.384Z,21.13
2022-11-30T13:46:16.712Z,21.37
2022-11-30T13:48:46.075Z,20.70
2022-11-30T13:51:14.794Z,21.20
2022-11-30T13:53:44.314Z,22.37
2022-11-30T13:56:35.692Z,23.90
2022-11-30T13:59:36.300Z,22.83
2022-11-30T14:02:43.141Z,22.60
2022-11-30T14:05:26.026Z,22.53
2022-11-30T14:08:19.286Z,23.40
2022-11-30T14:10:49.945Z,22.73
2022-11-30T14:13:29.964Z,23.70
2022-11-30T14:16:01.268Z,25.17
2022-11-30T14:18:39.795Z,24.33
2022-11-30T14:21:32.474Z,24.33
2022-11-30T14:24:03.362Z,26.60
2022-11-30T14:26:37.485Z,27.47
2022-11-30T14:29:16.818Z,27.23
2022-11-30T14:31:53.812Z,26.00
2022-11-30T14:34:27.141Z,27.73
2022-11-30T14:37:00.535Z,26.63
2022-11-30T14:39:33.945Z,26.50
2022-11-30T14:42:04.821Z,25.53
2022-11-30T14:44:35.967Z,28.70
2022-11-30T14:47:14.657Z,28.97
2022-11-30T14:49:47.802Z,27.30
2022-11-30T14:52:20.839Z,26.93
2022-11-30T14:54:55.256Z,27.33
2022-11-30T14:57:33.234Z,26.37
2022-11-30T15:00:01.599Z,27.50
2022-11-30T15:02:34.288Z,25.67
2022-11-30T15:05:03.583Z,25.43
2022-11-30T15:07:32.808Z,27.90
2022-11-30T15:10:07.501Z,25.23
2022-11-30T15:12:41.966Z,27.83
2022-11-30T15:15:19.997Z,27.00
2022-11-30T15:17:55.847Z,28.00
2022-11-30T15:20:37.649Z,27.80
2022-11-30T15:23:06.638Z,30.07
2022-11-30T15:25:43.619Z,28.90
2022-11-30T15:28:18.689Z,29.73
2022-11-30T15:30:54.449Z,30.00
2022-11-30T15:33:25.599Z,33.37
2022-11-30T15:36:32.301Z,34.20
2022-11-30T15:38:53.139Z,35.40
2022-11-30T15:41:24.524Z,38.17
2022-11-30T15:43:56.758Z,37.63
2022-11-30T15:46:42.769Z,42.17
2022-11-30T15:49:24.666Z,43.50
2022-11-30T15:52:04.780Z,42.97
2022-11-30T15:54:47.279Z,43.97
2022-11-30T15:57:16.618Z,44.23
2022-11-30T16:00:02.061Z,44.10
2022-11-30T16:02:34.871Z,43.80
2022-11-30T16:05:24.505Z,47.07
2022-11-30T16:07:54.913Z,48.63
2022-11-30T16:10:26.200Z,49.57
2022-11-30T16:12:55.882Z,49.80
2022-11-30T16:15:27.720Z,50.60
2022-11-30T16:17:59.603Z,52.83
2022-11-30T16:20:29.111Z,53.73
2022-11-30T16:23:02.501Z,55.27
2022-11-30T16:25:33.748Z,55.27
2022-11-30T16:28:02.928Z,57.07
2022-11-30T16:30:32.608Z,59.37
2022-11-30T16:33:00.802Z,62.50
2022-11-30T16:35:36.565Z,62.60
2022-11-30T16:38:05.067Z,64.93
2022-11-30T16:40:38.509Z,66.33
2022-11-30T16:43:07.236Z,66.00
2022-11-30T16:45:39.014Z,66.18
2022-11-30T16:48:08.258Z,66.40
2022-11-30T16:50:37.406Z,69.20
2022-11-30T16:53:06.512Z,73.00
2022-11-30T16:55:37.766Z,71.43
2022-11-30T16:58:06.299Z,69.57
2022-11-30T17:00:35.327Z,69.97
2022-11-30T17:03:09.629Z,73.30
2022-11-30T17:05:38.222Z,72.73
2022-11-30T17:08:06.669Z,75.07
2022-11-30T17:10:34.972Z,73.80
2022-11-30T17:13:03.301Z,76.67
2022-11-30T17:15:31.610Z,74.77
2022-11-30T17:17:59.742Z,71.43
2022-11-30T17:20:29.564Z,72.50
2022-11-30T17:22:57.821Z,73.30
2022-11-30T17:25:26.185Z,72.33
2022-11-30T17:27:54.325Z,71.87
2022-11-30T17:30:23.876Z,71.90
2022-11-30T17:32:52.276Z,71.13
2022-11-30T17:35:20.733Z,69.87
2022-11-30T17:37:50.337Z,69.80
2022-11-30T17:40:18.789Z,72.03
2022-11-30T17:42:46.923Z,70.37
2022-11-30T17:45:15.137Z,70.90
2022-11-30T17:47:43.283Z,74.30
2022-11-30T17:50:12.051Z,72.70
2022-11-30T17:52:40.236Z,72.93
2022-11-30T17:55:10.586Z,75.20
2022-11-30T17:57:39.714Z,70.33
2022-11-30T18:00:09.767Z,72.80
2022-11-30T18:02:37.983Z,72.10
2022-11-30T18:05:07.279Z,72.57
2022-11-30T18:07:35.517Z,74.17
2022-11-30T18:10:03.770Z,72.97
2022-11-30T18:12:33.272Z,70.60
2022-11-30T18:15:01.426Z,70.10
2022-11-30T18:17:29.743Z,72.67
2022-11-30T18:19:57.851Z,72.90
2022-11-30T18:22:26.185Z,75.53
2022-11-30T18:24:54.325Z,73.53
2022-11-30T18:27:22.527Z,72.97
2022-11-30T18:29:52.313Z,75.57
2022-11-30T18:32:20.677Z,73.57
2022-11-30T18:34:50.349Z,73.63
2022-11-30T18:37:18.668Z,69.23
2022-11-30T18:39:47.533Z,70.47
2022-11-30T18:42:16.328Z,74.07
2022-11-30T18:44:44.569Z,76.47
2022-11-30T18:47:14.244Z,73.70
2022-11-30T18:49:42.343Z,71.57
2022-11-30T18:52:10.536Z,74.63
2022-11-30T18:54:38.718Z,74.30
2022-11-30T18:57:07.028Z,71.70
2022-11-30T18:59:35.151Z,72.50
2022-11-30T19:02:03.653Z,69.80
2022-11-30T19:04:33.559Z,70.57
2022-11-30T19:07:01.470Z,76.40
2022-11-30T19:09:29.948Z,73.43
2022-11-30T19:11:58.216Z,73.33
2022-11-30T19:14:26.305Z,77.23
2022-11-30T19:16:54.631Z,74.80
2022-11-30T19:19:22.812Z,73.67
2022-11-30T19:21:52.376Z,75.00
2022-11-30T19:24:20.668Z,77.77
2022-11-30T19:26:49.414Z,73.57
2022-11-30T19:29:17.790Z,74.47
2022-11-30T19:31:46.568Z,80.17
2022-11-30T19:34:15.088Z,80.03
2022-11-30T19:36:43.522Z,80.43
2022-11-30T19:39:13.290Z,79.43
2022-11-30T19:41:41.443Z,79.80
2022-11-30T19:44:15.031Z,79.43
2022-11-30T19:46:43.370Z,75.83
2022-11-30T19:49:13.434Z,79.47
2022-11-30T19:51:41.640Z,76.37
2022-11-30T19:54:09.962Z,80.00
2022-11-30T19:56:41.915Z,82.70
2022-11-30T19:59:10.293Z,84.60
2022-11-30T20:01:38.727Z,81.17
2022-11-30T20:04:07.108Z,82.43
2022-11-30T20:06:36.904Z,78.83
2022-11-30T20:09:06.626Z,78.47
2022-11-30T20:11:35.512Z,80.10
2022-11-30T20:14:05.517Z,80.30
2022-11-30T20:16:34.170Z,81.07
2022-11-30T20:19:03.791Z,76.87
2022-11-30T20:21:34.030Z,76.87
2022-11-30T20:24:04.417Z,77.67
2022-11-30T20:26:34.668Z,79.53
2022-11-30T20:29:05.773Z,79.97
2022-11-30T20:31:36.700Z,82.40
2022-11-30T20:34:05.306Z,81.80
2022-11-30T20:36:33.478Z,82.80
2022-11-30T20:39:02.878Z,84.53
2022-11-30T20:41:31.042Z,82.43
2022-11-30T20:43:59.392Z,81.33
2022-11-30T20:46:30.534Z,82.03
2022-11-30T20:48:59.982Z,85.87
2022-11-30T20:51:31.714Z,85.57
2022-11-30T20:54:01.332Z,86.37
2022-11-30T20:56:29.588Z,84.07
2022-11-30T20:59:01.199Z,80.37
2022-11-30T21:01:30.835Z,79.70
2022-11-30T21:04:00.639Z,83.90
2022-11-30T21:06:29.196Z,82.47
2022-11-30T21:08:57.431Z,81.43
2022-11-30T21:11:26.334Z,82.97
2022-11-30T21:13:54.855Z,84.37
2022-11-30T21:16:28.163Z,84.70
2022-11-30T21:18:59.909Z,86.03
2022-11-30T21:21:30.781Z,86.83
2022-11-30T21:24:01.047Z,85.53
2022-11-30T21:26:31.107Z,83.80
2022-11-30T21:29:01.979Z,91.20
2022-11-30T21:31:31.060Z,88.37
2022-11-30T21:34:01.112Z,85.37
2022-11-30T21:36:29.973Z,89.10
2022-11-30T21:39:05.121Z,87.23
2022-11-30T21:41:35.257Z,90.10
2022-11-30T21:44:03.633Z,98.00
2022-11-30T21:46:32.108Z,88.37
2022-11-30T21:49:01.876Z,87.70
2022-11-30T21:51:32.115Z,88.53
2022-11-30T21:54:02.698Z,87.40
2022-11-30T21:56:32.422Z,89.47
2022-11-30T21:59:01.329Z,91.77
2022-11-30T22:01:32.271Z,85.90
2022-11-30T22:04:03.255Z,89.70
2022-11-30T22:06:34.353Z,89.50
2022-11-30T22:09:07.635Z,88.97
2022-11-30T22:11:37.395Z,87.10
2022-11-30T22:14:05.941Z,86.53
2022-11-30T22:16:36.472Z,87.10
2022-11-30T22:19:07.583Z,87.97
2022-11-30T22:21:36.674Z,87.60
2022-11-30T22:24:06.717Z,87.07
2022-11-30T22:26:36.224Z,87.27
2022-11-30T22:29:06.690Z,91.97
2022-11-30T22:31:37.521Z,93.90
2022-11-30T22:34:07.815Z,92.47
2022-11-30T22:36:37.967Z,96.20
2022-11-30T22:39:09.240Z,95.20
2022-11-30T22:41:37.356Z,98.80
2022-11-30T22:44:05.785Z,93.53
2022-11-30T22:46:36.002Z,92.37
2022-11-30T22:49:07.802Z,94.03
2022-11-30T22:51:37.680Z,92.30
2022-11-30T22:54:06.689Z,89.80
2022-11-30T22:56:36.434Z,94.17
2022-11-30T22:59:06.629Z,90.50
2022-11-30T23:01:36.482Z,91.40
2022-11-30T23:04:08.443Z,91.67
2022-11-30T23:06:38.398Z,100.00
2022-11-30T23:09:08.623Z,91.30
2022-11-30T23:11:37.204Z,96.43
2022-11-30T23:14:08.157Z,93.90
2022-11-30T23:16:37.174Z,94.73
2022-11-30T23:19:07.822Z,94.63
2022-11-30T23:21:41.448Z,96.43
2022-11-30T23:24:17.979Z,101.53
2022-11-30T23:26:46.234Z,95.93
2022-11-30T23:29:16.041Z,92.33
2022-11-30T23:31:45.630Z,98.87
2022-11-30T23:34:17.688Z,93.90
2022-11-30T23:36:46.298Z,93.87
2022-11-30T23:39:15.877Z,95.13
2022-11-30T23:41:44.710Z,98.23
2022-11-30T23:44:13.215Z,93.73
2022-11-30T23:46:41.588Z,91.03
2022-11-30T23:49:09.783Z,91.87
2022-11-30T23:51:39.275Z,87.67
2022-11-30T23:54:07.444Z,90.67
2022-11-30T23:56:35.605Z,91.47
2022-11-30T23:59:03.761Z,89.87
